sim
Sign-in with your pilot id or email,
or register
Callsign
Passwort

Schedule Details

Flight Number: OEO2686
Departure: Bremen Airport (EDDW) at 08:25
Arrival: Fuerteventura Airport (GCFV) at 13:25

Weather Information
Getting current METAR information for EDDW 231020Z VRB03KT 9999 FEW044 28/17 Q1021 NOSIG
Getting current METAR information for GCFV 231030Z 05013KT 9999 FEW020 24/18 Q1017

Schedule Frequency

Route Map